CTA2 weather

Sept-Îles (Hydro-Québec) Heliport
Sept-Îles, Quebec, Canada

Public forecast

Using degrees Celsius for public forecast. Weather courtesy of forecast.io.

METAR (pilot weather report)

Closest report is Sept-Îles Airport, 6.9 nm (12.7 km) SE. Retrieved 2019/05/21 02:00 UTC (43 minutes ago):

CYZV 210200Z 07007KT 15SM -RA OVC040 04/02 A2980 RMK SC8 SLP097

TAF (pilot weather forecast)

Forecast is more than 12 hours old.

Closest forecast is Sept-Îles Airport, 6.9 nm (12.7 km) SE. Retrieved 2019/05/20 00:42 UTC (1 day ago):

TAF CYZV 202338Z 2100/2124 08010KT P6SM FEW015 SCT030 OVC050 TEMPO 2100/2110 4SM -RA BR BKN008 OVC015 FM211000 07015G25KT 6SM -RA BR SCT006 OVC010 TEMPO 2110/2118 2SM -RA BR OVC006 FM211800 05010G20KT P6SM -RA SCT006 OVC030 BECMG 2118/2120 01008KT RMK NXT FCST BY 210600Z